createdAt,value
2023-05-06T00:01:05.205Z,100657.41
2023-05-06T00:03:33.097Z,100639.47
2023-05-06T00:06:03.169Z,100648.81
2023-05-06T00:08:31.160Z,100645.28
2023-05-06T00:10:59.048Z,100652.06
2023-05-06T00:13:28.920Z,100593.09
2023-05-06T00:15:59.483Z,100634.47
2023-05-06T00:18:28.234Z,100640.28
2023-05-06T00:20:56.359Z,100620.44
2023-05-06T00:23:24.371Z,100624.94
2023-05-06T00:25:54.542Z,100626.06
2023-05-06T00:28:23.027Z,100611.53
2023-05-06T00:30:51.407Z,100651.56
2023-05-06T00:33:21.353Z,100654.66
2023-05-06T00:35:49.801Z,100626.06
2023-05-06T00:38:19.745Z,100620.22
2023-05-06T00:40:48.656Z,100622.19
2023-05-06T00:43:17.324Z,100633.72
2023-05-06T00:45:45.628Z,100638.88
2023-05-06T00:48:14.828Z,100641.59
2023-05-06T00:50:42.638Z,100608.19
2023-05-06T00:53:11.145Z,100625.63
2023-05-06T00:55:40.307Z,100626.75
2023-05-06T00:58:09.144Z,100600.41
2023-05-06T01:00:38.945Z,100599.78
2023-05-06T01:03:06.795Z,100630.28
2023-05-06T01:05:48.050Z,100616.91
2023-05-06T01:08:44.557Z,100608.66
2023-05-06T01:12:04.170Z,100611.25
2023-05-06T01:15:00.319Z,100611.09
2023-05-06T01:17:30.945Z,100599.44
2023-05-06T01:20:01.876Z,100608.03
2023-05-06T01:22:31.621Z,100537.06
2023-05-06T01:24:59.448Z,100605.59
2023-05-06T01:27:28.786Z,100582.81
2023-05-06T01:29:58.436Z,100565.66
2023-05-06T01:32:37.072Z,100602.19
2023-05-06T01:35:18.809Z,100583.78
2023-05-06T01:37:55.886Z,100594.47
2023-05-06T01:40:27.727Z,100555.88
2023-05-06T01:42:56.803Z,100579.31
2023-05-06T01:45:28.363Z,100587.88
2023-05-06T01:47:57.489Z,100551.84
2023-05-06T01:50:26.390Z,100578.50
2023-05-06T01:53:01.825Z,100578.50
2023-05-06T01:55:29.744Z,100577.19
2023-05-06T01:57:57.723Z,100539.91
2023-05-06T02:00:27.078Z,100565.63
2023-05-06T02:02:54.912Z,100538.81
2023-05-06T02:05:23.012Z,100547.84
2023-05-06T02:07:56.217Z,100517.63
2023-05-06T02:10:24.166Z,100545.91
2023-05-06T02:12:58.583Z,100507.63
2023-05-06T02:15:26.458Z,100490.06
2023-05-06T02:17:55.286Z,100547.91
2023-05-06T02:20:23.831Z,100549.00
2023-05-06T02:22:51.923Z,100530.56
2023-05-06T02:25:19.865Z,100540.44
2023-05-06T02:27:47.664Z,100489.72
2023-05-06T02:30:16.099Z,100500.88
2023-05-06T02:32:44.101Z,100512.72
2023-05-06T02:35:13.195Z,100516.75
2023-05-06T02:37:41.536Z,100478.81
2023-05-06T02:40:10.163Z,100514.38
2023-05-06T02:42:38.014Z,100516.94
2023-05-06T02:45:25.419Z,100516.09
2023-05-06T02:48:13.417Z,100489.63
2023-05-06T02:51:00.193Z,100509.81
2023-05-06T02:53:28.525Z,100489.50
2023-05-06T02:55:56.948Z,100513.72
2023-05-06T02:58:26.334Z,100495.78
2023-05-06T03:00:54.129Z,100519.38
2023-05-06T03:03:22.572Z,100483.66
2023-05-06T03:05:50.428Z,100468.00
2023-05-06T03:08:19.140Z,100504.19
2023-05-06T03:10:48.389Z,100515.84
2023-05-06T03:13:19.597Z,100500.00
2023-05-06T03:15:52.781Z,100484.16
2023-05-06T03:18:21.424Z,100497.41
2023-05-06T03:20:49.757Z,100503.84
2023-05-06T03:23:18.252Z,100467.03
2023-05-06T03:25:46.908Z,100509.03
2023-05-06T03:28:16.171Z,100453.84
2023-05-06T03:30:45.916Z,100474.34
2023-05-06T03:33:14.416Z,100467.53
2023-05-06T03:35:43.463Z,100432.38
2023-05-06T03:38:12.151Z,100498.72
2023-05-06T03:40:54.228Z,100442.41
2023-05-06T03:43:22.584Z,100491.13
2023-05-06T03:45:55.435Z,100499.69
2023-05-06T03:48:25.194Z,100466.75
2023-05-06T03:50:55.336Z,100497.09
2023-05-06T03:53:23.422Z,100494.38
2023-05-06T03:55:52.835Z,100476.88
2023-05-06T03:58:20.766Z,100470.91
2023-05-06T04:00:48.688Z,100476.84
2023-05-06T04:03:17.099Z,100495.31
2023-05-06T04:05:50.819Z,100486.38
2023-05-06T04:08:22.815Z,100470.72
2023-05-06T04:10:50.527Z,100487.41
2023-05-06T04:13:27.084Z,100458.34
2023-05-06T04:15:56.944Z,100481.22
2023-05-06T04:18:29.788Z,100496.59
2023-05-06T04:21:05.012Z,100489.50
2023-05-06T04:23:36.177Z,100494.38
2023-05-06T04:26:04.673Z,100465.94
2023-05-06T04:28:34.332Z,100485.63
2023-05-06T04:31:05.052Z,100493.38
2023-05-06T04:33:45.979Z,100458.19
2023-05-06T04:36:21.058Z,100497.72
2023-05-06T04:39:10.613Z,100452.88
2023-05-06T04:41:39.578Z,100477.06
2023-05-06T04:44:27.463Z,100467.88
2023-05-06T04:46:56.850Z,100464.78
2023-05-06T04:49:25.571Z,100459.94
2023-05-06T04:51:53.828Z,100444.94
2023-05-06T04:54:23.055Z,100458.69
2023-05-06T04:56:51.345Z,100463.31
2023-05-06T04:59:22.310Z,100489.69
2023-05-06T05:01:50.393Z,100449.00
2023-05-06T05:04:18.472Z,100494.38
2023-05-06T05:06:46.297Z,100477.38
2023-05-06T05:09:14.884Z,100435.28
2023-05-06T05:11:45.162Z,100484.84
2023-05-06T05:14:13.036Z,100477.75
2023-05-06T05:16:41.879Z,100494.19
2023-05-06T05:19:09.895Z,100465.50
2023-05-06T05:21:38.029Z,100445.31
2023-05-06T05:24:07.569Z,100471.94
2023-05-06T05:26:36.006Z,100460.13
2023-05-06T05:29:03.985Z,100482.28
2023-05-06T05:31:34.492Z,100484.88
2023-05-06T05:34:02.914Z,100503.91
2023-05-06T05:36:33.671Z,100488.91
2023-05-06T05:39:04.434Z,100493.72
2023-05-06T05:41:35.076Z,100483.16
2023-05-06T05:44:03.543Z,100470.72
2023-05-06T05:46:31.791Z,100474.47
2023-05-06T05:49:01.127Z,100488.63
2023-05-06T05:51:29.224Z,100510.03
2023-05-06T05:53:58.856Z,100486.38
2023-05-06T05:56:29.424Z,100484.63
2023-05-06T05:58:58.054Z,100462.16
2023-05-06T06:01:27.154Z,100498.53
2023-05-06T06:03:56.859Z,100520.16
2023-05-06T06:06:25.085Z,100503.84
2023-05-06T06:08:53.514Z,100464.41
2023-05-06T06:11:22.698Z,100456.84
2023-05-06T06:13:52.324Z,100458.94
2023-05-06T06:16:20.812Z,100483.88
2023-05-06T06:18:50.277Z,100515.84
2023-05-06T06:21:19.555Z,100495.63
2023-05-06T06:23:48.104Z,100474.47
2023-05-06T06:26:16.208Z,100486.09
2023-05-06T06:28:45.054Z,100473.66
2023-05-06T06:31:13.127Z,100485.28
2023-05-06T06:33:40.844Z,100495.66
2023-05-06T06:36:09.016Z,100525.16
2023-05-06T06:38:36.804Z,100495.50
2023-05-06T06:41:08.067Z,100521.31
2023-05-06T06:43:36.993Z,100493.84
2023-05-06T06:46:24.325Z,100510.03
2023-05-06T06:48:52.227Z,100499.97
2023-05-06T06:51:21.841Z,100514.69
2023-05-06T06:53:52.451Z,100531.63
2023-05-06T06:56:20.209Z,100535.97
2023-05-06T06:58:48.028Z,100517.72
2023-05-06T07:01:16.530Z,100512.88
2023-05-06T07:03:44.327Z,100512.09
2023-05-06T07:06:12.750Z,100519.34
2023-05-06T07:08:43.165Z,100517.72
2023-05-06T07:11:12.512Z,100537.09
2023-05-06T07:13:40.729Z,100533.22
2023-05-06T07:16:08.560Z,100543.38
2023-05-06T07:18:36.708Z,100507.84
2023-05-06T07:21:05.805Z,100513.38
2023-05-06T07:23:36.060Z,100530.50
2023-05-06T07:26:04.647Z,100492.66
2023-05-06T07:28:33.743Z,100503.41
2023-05-06T07:31:01.773Z,100538.25
2023-05-06T07:33:30.098Z,100517.44
2023-05-06T07:35:57.962Z,100522.28
2023-05-06T07:38:27.686Z,100481.13
2023-05-06T07:40:55.384Z,100518.06
2023-05-06T07:43:23.757Z,100522.13
2023-05-06T07:45:51.628Z,100534.72
2023-05-06T07:48:20.355Z,100557.13
2023-05-06T07:50:49.303Z,100545.84
2023-05-06T07:53:17.637Z,100507.75
2023-05-06T07:55:46.172Z,100535.41
2023-05-06T07:58:14.209Z,100524.72
2023-05-06T08:00:42.289Z,100503.75
2023-05-06T08:03:10.294Z,100496.34
2023-05-06T08:05:39.139Z,100518.75
2023-05-06T08:08:07.643Z,100512.94
2023-05-06T08:10:36.092Z,100490.34
2023-05-06T08:13:04.248Z,100519.25
2023-05-06T08:15:34.991Z,100532.16
2023-05-06T08:18:20.998Z,100539.09
2023-05-06T08:20:49.899Z,100523.78
2023-05-06T08:23:21.162Z,100540.09
2023-05-06T08:25:50.296Z,100543.66
2023-05-06T08:28:18.241Z,100549.59
2023-05-06T08:30:48.652Z,100504.59
2023-05-06T08:33:16.552Z,100554.75
2023-05-06T08:35:45.168Z,100538.97
2023-05-06T08:38:13.138Z,100509.41
2023-05-06T08:40:45.435Z,100528.00
2023-05-06T08:43:17.014Z,100553.00
2023-05-06T08:45:44.989Z,100560.09
2023-05-06T08:48:13.216Z,100548.97
2023-05-06T08:50:44.820Z,100503.94
2023-05-06T08:53:13.657Z,100538.81
2023-05-06T08:55:42.775Z,100565.13
2023-05-06T08:58:15.896Z,100535.88
2023-05-06T09:00:44.649Z,100516.84
2023-05-06T09:03:13.840Z,100522.66
2023-05-06T09:05:42.427Z,100549.16
2023-05-06T09:08:12.115Z,100563.69
2023-05-06T09:10:44.910Z,100574.81
2023-05-06T09:13:20.508Z,100552.81
2023-05-06T09:15:49.479Z,100573.47
2023-05-06T09:18:17.559Z,100585.09
2023-05-06T09:20:49.203Z,100591.22
2023-05-06T09:23:19.242Z,100586.03
2023-05-06T09:25:49.861Z,100597.81
2023-05-06T09:28:17.784Z,100591.53
2023-05-06T09:30:48.003Z,100573.94
2023-05-06T09:33:16.532Z,100576.34
2023-05-06T09:35:45.963Z,100563.31
2023-05-06T09:38:13.782Z,100569.50
2023-05-06T09:40:42.508Z,100579.34
2023-05-06T09:43:11.141Z,100580.00
2023-05-06T09:45:39.500Z,100557.56
2023-05-06T09:48:08.807Z,100565.97
2023-05-06T09:50:37.252Z,100566.31
2023-05-06T09:53:06.661Z,100527.75
2023-05-06T09:55:36.684Z,100529.69
2023-05-06T09:58:06.523Z,100529.53
2023-05-06T10:00:35.711Z,100538.56
2023-05-06T10:03:05.090Z,100538.25
2023-05-06T10:05:34.092Z,100520.19
2023-05-06T10:08:04.519Z,100569.06
2023-05-06T10:10:37.578Z,100542.44
2023-05-06T10:13:05.514Z,100540.66
2023-05-06T10:15:33.429Z,100551.97
2023-05-06T10:18:01.925Z,100531.16
2023-05-06T10:20:31.882Z,100528.88
2023-05-06T10:23:08.761Z,100557.13
2023-05-06T10:25:39.312Z,100560.19
2023-05-06T10:28:16.660Z,100559.56
2023-05-06T10:30:59.461Z,100516.97
2023-05-06T10:33:28.524Z,100493.56
2023-05-06T10:36:16.215Z,100555.00
2023-05-06T10:38:47.495Z,100523.59
2023-05-06T10:41:16.655Z,100533.41
2023-05-06T10:43:45.510Z,100561.81
2023-05-06T10:46:15.704Z,100546.00
2023-05-06T10:49:06.856Z,100550.53
2023-05-06T10:51:39.086Z,100563.44
2023-05-06T10:54:19.113Z,100555.22
2023-05-06T10:56:50.852Z,100568.59
2023-05-06T10:59:24.673Z,100558.44
2023-05-06T11:02:11.015Z,100556.63
2023-05-06T11:04:39.772Z,100562.44
2023-05-06T11:07:21.365Z,100563.72
2023-05-06T11:10:08.373Z,100555.03
2023-05-06T11:12:50.328Z,100519.72
2023-05-06T11:15:27.519Z,100543.59
2023-05-06T11:17:57.541Z,100553.75
2023-05-06T11:20:26.948Z,100544.72
2023-05-06T11:22:54.900Z,100526.66
2023-05-06T11:25:42.035Z,100541.50
2023-05-06T11:28:12.147Z,100510.69
2023-05-06T11:30:54.009Z,100515.69
2023-05-06T11:33:24.312Z,100482.75
2023-05-06T11:35:53.395Z,100531.00
2023-05-06T11:38:21.673Z,100487.94
2023-05-06T11:40:49.507Z,100477.94
2023-05-06T11:43:18.460Z,100483.91
2023-05-06T11:45:50.881Z,100525.19
2023-05-06T11:48:19.615Z,100481.66
2023-05-06T11:50:48.874Z,100515.50
2023-05-06T11:53:22.745Z,100486.97
2023-05-06T11:55:54.357Z,100521.16
2023-05-06T11:58:27.227Z,100526.66
2023-05-06T12:01:02.822Z,100474.25
2023-05-06T12:03:33.911Z,100504.06
2023-05-06T12:06:02.579Z,100520.66
2023-05-06T12:08:34.095Z,100497.59
2023-05-06T12:11:08.400Z,100496.66
2023-05-06T12:13:37.322Z,100480.97
2023-05-06T12:16:08.044Z,100520.19
2023-05-06T12:18:36.637Z,100499.53
2023-05-06T12:21:04.739Z,100518.91
2023-05-06T12:23:32.591Z,100518.72
2023-05-06T12:26:05.191Z,100439.53
2023-05-06T12:28:36.944Z,100508.09
2023-05-06T12:31:24.347Z,100489.38
2023-05-06T12:33:52.721Z,100525.66
2023-05-06T12:36:21.462Z,100502.78
2023-05-06T12:38:54.217Z,100515.34
2023-05-06T12:41:24.889Z,100518.56
2023-05-06T12:43:53.044Z,100464.88
2023-05-06T12:46:21.092Z,100435.66
2023-05-06T12:48:59.006Z,100506.81
2023-05-06T12:51:29.010Z,100511.47
2023-05-06T12:53:57.268Z,100518.09
2023-05-06T12:56:25.372Z,100458.53
2023-05-06T12:59:02.530Z,100481.16
2023-05-06T13:01:31.836Z,100512.13
2023-05-06T13:03:59.715Z,100504.53
2023-05-06T13:06:27.671Z,100525.66
2023-05-06T13:08:55.578Z,100499.53
2023-05-06T13:11:25.978Z,100519.38
2023-05-06T13:13:54.211Z,100488.69
2023-05-06T13:16:23.379Z,100478.06
2023-05-06T13:18:51.478Z,100472.56
2023-05-06T13:21:19.219Z,100507.94
2023-05-06T13:23:48.777Z,100485.84
2023-05-06T13:26:19.690Z,100506.00
2023-05-06T13:28:47.637Z,100501.31
2023-05-06T13:31:15.694Z,100483.09
2023-05-06T13:33:44.009Z,100495.19
2023-05-06T13:36:11.896Z,100486.00
2023-05-06T13:38:40.236Z,100507.63
2023-05-06T13:41:09.133Z,100484.88
2023-05-06T13:43:37.404Z,100463.44
2023-05-06T13:46:09.294Z,100484.56
2023-05-06T13:48:38.419Z,100494.38
2023-05-06T13:51:06.184Z,100475.19
2023-05-06T13:53:34.134Z,100488.91
2023-05-06T13:56:02.115Z,100467.78
2023-05-06T13:58:31.239Z,100497.44
2023-05-06T14:01:01.809Z,100484.06
2023-05-06T14:03:30.359Z,100493.91
2023-05-06T14:05:59.923Z,100496.19
2023-05-06T14:08:28.363Z,100489.22
2023-05-06T14:10:57.303Z,100471.47
2023-05-06T14:13:25.161Z,100491.00
2023-05-06T14:15:55.047Z,100440.16
2023-05-06T14:18:26.455Z,100451.47
2023-05-06T14:20:54.963Z,100460.22
2023-05-06T14:23:23.314Z,100435.66
2023-05-06T14:25:51.310Z,100476.16
2023-05-06T14:28:25.033Z,100407.28
2023-05-06T14:30:54.814Z,100473.41
2023-05-06T14:33:25.084Z,100432.59
2023-05-06T14:35:55.031Z,100480.03
2023-05-06T14:38:24.712Z,100480.19
2023-05-06T14:40:52.567Z,100453.25
2023-05-06T14:43:20.454Z,100434.19
2023-05-06T14:45:48.455Z,100438.56
2023-05-06T14:48:16.893Z,100447.91
2023-05-06T14:50:44.744Z,100442.91
2023-05-06T14:53:12.458Z,100477.72
2023-05-06T14:55:41.456Z,100412.75
2023-05-06T14:58:09.322Z,100467.28
2023-05-06T15:00:37.239Z,100444.69
2023-05-06T15:03:05.864Z,100452.59
2023-05-06T15:05:37.405Z,100449.50
2023-05-06T15:08:06.650Z,100461.78
2023-05-06T15:10:34.757Z,100460.69
2023-05-06T15:13:06.004Z,100399.41
2023-05-06T15:15:35.611Z,100449.72
2023-05-06T15:18:04.859Z,100454.06
2023-05-06T15:20:32.868Z,100443.88
2023-05-06T15:23:01.794Z,100399.53
2023-05-06T15:25:35.792Z,100423.72
2023-05-06T15:28:08.438Z,100372.66
2023-05-06T15:30:37.891Z,100382.81
2023-05-06T15:33:05.946Z,100425.50
2023-05-06T15:35:34.243Z,100424.06
2023-05-06T15:38:04.560Z,100396.50
2023-05-06T15:40:37.029Z,100426.34
2023-05-06T15:43:06.040Z,100406.81
2023-05-06T15:45:33.830Z,100411.84
2023-05-06T15:48:15.365Z,100382.34
2023-05-06T15:50:53.230Z,100285.97
2023-05-06T15:53:48.575Z,100177.41
2023-05-06T15:56:40.738Z,100127.31
2023-05-06T15:59:17.905Z,100286.47
2023-05-06T16:02:25.717Z,100322.56
2023-05-06T16:05:02.034Z,100186.13
2023-05-06T16:07:43.317Z,100192.41
2023-05-06T16:10:19.446Z,100237.50
2023-05-06T16:12:57.592Z,100121.41
2023-05-06T16:15:35.751Z,100135.28
2023-05-06T16:18:14.229Z,100320.94
2023-05-06T16:20:43.038Z,100337.84
2023-05-06T16:23:10.950Z,100373.13
2023-05-06T16:25:38.602Z,100300.94
2023-05-06T16:28:08.944Z,100373.13
2023-05-06T16:30:40.384Z,100381.84
2023-05-06T16:33:44.602Z,100249.13
2023-05-06T16:36:40.528Z,100150.56
2023-05-06T16:39:12.317Z,100325.59
2023-05-06T16:41:44.407Z,100383.31
2023-05-06T16:44:12.496Z,100370.84
2023-05-06T16:46:40.364Z,100354.28
2023-05-06T16:49:10.243Z,100371.88
2023-05-06T16:51:40.912Z,100351.22
2023-05-06T16:54:08.989Z,100332.03
2023-05-06T16:56:50.907Z,100328.81
2023-05-06T16:59:22.395Z,100354.94
2023-05-06T17:01:54.115Z,100340.25
2023-05-06T17:04:24.707Z,100335.59
2023-05-06T17:06:55.288Z,100371.03
2023-05-06T17:09:23.082Z,100343.47
2023-05-06T17:11:50.956Z,100306.28
2023-05-06T17:14:20.101Z,100302.72
2023-05-06T17:16:49.326Z,100370.72
2023-05-06T17:19:25.344Z,100350.56
2023-05-06T17:21:53.501Z,100325.13
2023-05-06T17:24:23.717Z,100355.41
2023-05-06T17:26:51.703Z,100362.34
2023-05-06T17:29:22.312Z,100365.25
2023-05-06T17:31:50.317Z,100366.38
2023-05-06T17:34:18.842Z,100305.63
2023-05-06T17:36:46.720Z,100352.50
2023-05-06T17:39:17.150Z,100346.22
2023-05-06T17:41:45.928Z,100328.34
2023-05-06T17:44:18.457Z,100335.41
2023-05-06T17:46:46.460Z,100332.53
2023-05-06T17:49:14.442Z,100348.63
2023-05-06T17:51:46.404Z,100316.44
2023-05-06T17:54:16.056Z,100338.81
2023-05-06T17:56:52.397Z,100289.19
2023-05-06T17:59:26.194Z,100282.25
2023-05-06T18:01:54.170Z,100349.47
2023-05-06T18:04:40.449Z,100337.53
2023-05-06T18:07:16.182Z,100304.34
2023-05-06T18:09:52.516Z,100168.25
2023-05-06T18:12:33.750Z,100218.16
2023-05-06T18:15:09.407Z,100309.50
2023-05-06T18:17:44.905Z,100117.69
2023-05-06T18:20:13.490Z,100369.91
2023-05-06T18:22:43.056Z,100349.25
2023-05-06T18:25:13.937Z,100278.41
2023-05-06T18:27:42.906Z,100329.94
2023-05-06T18:30:18.442Z,100293.84
2023-05-06T18:32:51.342Z,100286.44
2023-05-06T18:35:24.005Z,100325.59
2023-05-06T18:37:56.397Z,100329.59
2023-05-06T18:40:28.421Z,100336.03
2023-05-06T18:42:56.848Z,100334.91
2023-05-06T18:45:25.814Z,100278.38
2023-05-06T18:47:56.663Z,100337.66
2023-05-06T18:50:32.356Z,100355.56
2023-05-06T18:53:32.433Z,100292.88
2023-05-06T18:56:11.924Z,100220.09
2023-05-06T18:58:43.223Z,100249.91
2023-05-06T19:01:12.197Z,100308.16
2023-05-06T19:03:59.656Z,100172.09
2023-05-06T19:06:33.352Z,100369.25
2023-05-06T19:09:08.476Z,100178.25
2023-05-06T19:11:36.472Z,100369.41
2023-05-06T19:14:05.263Z,100372.00
2023-05-06T19:16:33.450Z,100383.13
2023-05-06T19:19:03.550Z,100377.63
2023-05-06T19:21:31.866Z,100359.75
2023-05-06T19:24:01.194Z,100361.53
2023-05-06T19:26:29.699Z,100351.56
2023-05-06T19:28:57.748Z,100334.94
2023-05-06T19:31:28.486Z,100373.63
2023-05-06T19:33:57.273Z,100359.28
2023-05-06T19:36:28.436Z,100410.38
2023-05-06T19:38:57.388Z,100417.47
2023-05-06T19:41:26.514Z,100336.88
2023-05-06T19:44:00.129Z,100415.22
2023-05-06T19:46:30.689Z,100351.38
2023-05-06T19:49:00.775Z,100404.72
2023-05-06T19:51:30.741Z,100423.75
2023-05-06T19:53:59.492Z,100402.81
2023-05-06T19:56:28.735Z,100438.28
2023-05-06T19:59:00.038Z,100362.84
2023-05-06T20:01:27.916Z,100420.53
2023-05-06T20:03:56.049Z,100430.06
2023-05-06T20:06:25.510Z,100462.28
2023-05-06T20:08:56.697Z,100414.56
2023-05-06T20:11:27.690Z,100383.44
2023-05-06T20:13:55.827Z,100412.13
2023-05-06T20:16:23.948Z,100444.25
2023-05-06T20:18:53.426Z,100442.63
2023-05-06T20:21:21.358Z,100411.84
2023-05-06T20:23:51.014Z,100430.53
2023-05-06T20:26:18.876Z,100400.72
2023-05-06T20:28:47.007Z,100426.00
2023-05-06T20:31:15.361Z,100420.19
2023-05-06T20:33:43.376Z,100446.50
2023-05-06T20:36:14.280Z,100376.81
2023-05-06T20:38:43.098Z,100423.72
2023-05-06T20:41:14.248Z,100444.25
2023-05-06T20:47:15.520Z,100246.59
2023-05-06T20:49:51.547Z,100386.34
2023-05-06T20:52:50.664Z,100382.31
2023-05-06T20:58:35.545Z,100290.06
2023-05-06T21:01:13.636Z,100274.88
2023-05-06T21:06:57.847Z,100209.31
2023-05-06T21:09:28.065Z,100487.91
2023-05-06T21:11:57.582Z,100486.31
2023-05-06T21:14:29.261Z,100488.09
2023-05-06T21:16:57.918Z,100501.78
2023-05-06T21:19:26.142Z,100501.63
2023-05-06T21:21:56.928Z,100464.34
2023-05-06T21:24:25.457Z,100471.63
2023-05-06T21:27:07.054Z,100363.38
2023-05-06T21:29:46.850Z,100390.69
2023-05-06T21:32:18.738Z,100470.16
2023-05-06T21:34:47.566Z,100497.78
2023-05-06T21:37:15.631Z,100470.97
2023-05-06T21:39:46.504Z,100485.66
2023-05-06T21:42:16.535Z,100498.53
2023-05-06T21:44:45.893Z,100500.53
2023-05-06T21:47:14.773Z,100485.66
2023-05-06T21:49:43.492Z,100494.72
2023-05-06T21:52:11.369Z,100494.06
2023-05-06T21:54:46.214Z,100465.34
2023-05-06T21:57:15.097Z,100442.28
2023-05-06T21:59:46.022Z,100494.38
2023-05-06T22:02:16.670Z,100482.94
2023-05-06T22:04:49.755Z,100458.06
2023-05-06T22:07:20.845Z,100473.25
2023-05-06T22:09:51.407Z,100481.34
2023-05-06T22:12:24.831Z,100438.72
2023-05-06T22:15:15.805Z,100396.47
2023-05-06T22:18:01.567Z,100301.47
2023-05-06T22:20:51.056Z,100433.72
2023-05-06T22:23:40.788Z,100234.00
2023-05-06T22:26:24.736Z,100276.34
2023-05-06T22:28:54.765Z,100440.50
2023-05-06T22:34:25.064Z,100267.53
2023-05-06T22:37:14.055Z,100281.38
2023-05-06T22:39:48.192Z,100327.91
2023-05-06T22:42:19.295Z,100393.91
2023-05-06T22:45:02.990Z,100310.81
2023-05-06T22:47:52.129Z,100225.16
2023-05-06T22:50:28.926Z,100199.81
2023-05-06T22:53:39.648Z,100443.75
2023-05-06T22:56:16.207Z,100234.59
2023-05-06T22:58:45.915Z,100461.78
2023-05-06T23:01:16.790Z,100439.69
2023-05-06T23:03:45.054Z,100422.78
2023-05-06T23:09:11.196Z,100307.31
2023-05-06T23:11:46.500Z,100310.19
2023-05-06T23:14:36.152Z,100342.75
2023-05-06T23:17:27.342Z,100321.63
2023-05-06T23:20:45.759Z,100253.88
2023-05-06T23:23:25.427Z,100316.91
2023-05-06T23:29:50.687Z,100274.38
2023-05-06T23:32:28.944Z,100330.94
2023-05-06T23:35:17.659Z,100397.75
2023-05-06T23:37:59.088Z,100211.00
2023-05-06T23:40:34.208Z,100291.63
2023-05-06T23:43:07.451Z,100299.38
2023-05-06T23:45:35.761Z,100453.84
2023-05-06T23:48:18.691Z,100466.13
2023-05-06T23:50:57.805Z,100339.66
2023-05-06T23:53:31.005Z,100353.81
2023-05-06T23:56:22.615Z,100236.16
2023-05-06T23:59:37.040Z,100363.53
